createdAt,value
2023-04-19T00:01:44.362Z,26.42
2023-04-19T00:04:11.739Z,27.35
2023-04-19T00:06:41.045Z,25.42
2023-04-19T00:09:09.375Z,25.00
2023-04-19T00:11:36.468Z,25.15
2023-04-19T00:14:03.620Z,28.02
2023-04-19T00:16:30.945Z,25.38
2023-04-19T00:18:58.028Z,25.67
2023-04-19T00:21:25.256Z,26.27
2023-04-19T00:23:54.072Z,25.25
2023-04-19T00:26:21.383Z,26.73
2023-04-19T00:28:51.928Z,25.52
2023-04-19T00:31:18.995Z,27.05
2023-04-19T00:33:46.108Z,23.93
2023-04-19T00:36:13.234Z,25.60
2023-04-19T00:38:40.821Z,27.20
2023-04-19T00:41:10.149Z,24.75
2023-04-19T00:43:37.240Z,25.02
2023-04-19T00:46:04.426Z,26.17
2023-04-19T00:48:31.582Z,28.10
2023-04-19T00:50:58.718Z,29.73
2023-04-19T00:53:25.888Z,27.35
2023-04-19T00:55:55.038Z,26.77
2023-04-19T00:58:22.174Z,22.77
2023-04-19T01:00:49.279Z,29.05
2023-04-19T01:03:17.039Z,30.10
2023-04-19T01:05:44.289Z,25.55
2023-04-19T01:08:13.281Z,22.23
2023-04-19T01:10:40.458Z,30.57
2023-04-19T01:13:09.017Z,28.17
2023-04-19T01:15:38.336Z,26.25
2023-04-19T01:18:05.924Z,26.80
2023-04-19T01:20:33.053Z,27.55
2023-04-19T01:23:00.176Z,24.20
2023-04-19T01:25:27.793Z,24.52
2023-04-19T01:27:54.841Z,25.83
2023-04-19T01:30:24.350Z,25.90
2023-04-19T01:32:51.561Z,27.05
2023-04-19T01:35:21.417Z,24.87
2023-04-19T01:37:48.521Z,30.20
2023-04-19T01:40:16.178Z,28.15
2023-04-19T01:42:43.325Z,25.77
2023-04-19T01:45:10.667Z,27.52
2023-04-19T01:47:37.890Z,26.93
2023-04-19T01:50:05.730Z,28.08
2023-04-19T01:52:32.821Z,24.38
2023-04-19T01:54:59.969Z,27.98
2023-04-19T01:57:27.008Z,29.40
2023-04-19T01:59:54.471Z,25.67
2023-04-19T02:02:21.848Z,32.30
2023-04-19T02:04:49.064Z,25.95
2023-04-19T02:07:16.091Z,28.67
2023-04-19T02:09:43.208Z,28.13
2023-04-19T02:12:10.479Z,23.53
2023-04-19T02:14:37.556Z,30.73
2023-04-19T02:17:04.666Z,29.92
2023-04-19T02:19:32.426Z,29.67
2023-04-19T02:22:07.315Z,26.70
2023-04-19T02:24:34.473Z,27.20
2023-04-19T02:27:02.075Z,28.48
2023-04-19T02:29:29.267Z,27.65
2023-04-19T02:31:56.348Z,28.35
2023-04-19T02:34:23.552Z,28.73
2023-04-19T02:36:50.862Z,27.52
2023-04-19T02:39:18.028Z,25.23
2023-04-19T02:41:45.179Z,24.95
2023-04-19T02:44:12.643Z,30.48
2023-04-19T02:46:40.101Z,28.43
2023-04-19T02:49:07.441Z,27.55
2023-04-19T02:51:34.774Z,21.70
2023-04-19T02:54:01.915Z,24.88
2023-04-19T02:56:29.105Z,23.88
2023-04-19T02:58:57.089Z,21.00
2023-04-19T03:01:24.328Z,26.65
2023-04-19T03:03:51.737Z,25.98
2023-04-19T03:06:19.569Z,23.73
2023-04-19T03:08:46.854Z,25.52
2023-04-19T03:11:16.969Z,23.30
2023-04-19T03:13:44.176Z,26.17
2023-04-19T03:16:13.199Z,23.33
2023-04-19T03:18:41.315Z,26.75
2023-04-19T03:21:09.571Z,23.98
2023-04-19T03:23:56.571Z,22.20
2023-04-19T03:26:25.608Z,25.10
2023-04-19T03:28:54.584Z,25.23
2023-04-19T03:31:21.805Z,23.00
2023-04-19T03:33:51.038Z,22.02
2023-04-19T03:36:21.461Z,22.83
2023-04-19T03:38:49.660Z,22.40
2023-04-19T03:41:26.417Z,20.77
2023-04-19T03:44:06.684Z,23.13
2023-04-19T03:46:34.237Z,20.75
2023-04-19T03:49:01.395Z,24.37
2023-04-19T03:51:29.690Z,24.48
2023-04-19T03:53:56.758Z,23.67
2023-04-19T03:56:24.242Z,21.45
2023-04-19T03:58:52.459Z,25.23
2023-04-19T04:01:21.294Z,23.03
2023-04-19T04:03:49.650Z,22.27
2023-04-19T04:06:18.380Z,26.02
2023-04-19T04:08:46.336Z,27.00
2023-04-19T04:11:13.478Z,23.38
2023-04-19T04:13:41.184Z,26.37
2023-04-19T04:16:13.541Z,23.83
2023-04-19T04:18:40.954Z,22.92
2023-04-19T04:21:10.900Z,23.45
2023-04-19T04:23:42.035Z,21.80
2023-04-19T04:26:14.472Z,23.97
2023-04-19T04:28:57.915Z,23.05
2023-04-19T04:31:26.001Z,25.40
2023-04-19T04:33:55.139Z,21.52
2023-04-19T04:36:22.423Z,23.75
2023-04-19T04:38:51.014Z,29.17
2023-04-19T04:41:18.099Z,22.70
2023-04-19T04:43:58.619Z,22.63
2023-04-19T04:46:37.911Z,24.02
2023-04-19T04:49:05.503Z,26.33
2023-04-19T04:51:32.692Z,24.87
2023-04-19T04:54:00.832Z,24.77
2023-04-19T04:56:28.224Z,21.35
2023-04-19T04:58:55.754Z,26.25
2023-04-19T05:01:28.645Z,23.00
2023-04-19T05:03:56.027Z,21.70
2023-04-19T05:06:23.227Z,28.00
2023-04-19T05:08:50.399Z,21.40
2023-04-19T05:11:28.153Z,26.27
2023-04-19T05:13:55.333Z,23.67
2023-04-19T05:16:23.480Z,27.23
2023-04-19T05:18:50.620Z,24.90
2023-04-19T05:21:18.639Z,26.00
2023-04-19T05:23:46.315Z,24.95
2023-04-19T05:26:15.654Z,22.95
2023-04-19T05:28:44.901Z,23.77
2023-04-19T05:31:21.103Z,27.95
2023-04-19T05:34:10.286Z,23.80
2023-04-19T05:36:37.593Z,23.38
2023-04-19T05:39:04.785Z,24.15
2023-04-19T05:41:31.855Z,24.03
2023-04-19T05:43:59.003Z,21.55
2023-04-19T05:46:27.228Z,25.85
2023-04-19T05:48:55.466Z,27.10
2023-04-19T05:51:41.042Z,24.90
2023-04-19T05:54:35.971Z,25.10
2023-04-19T05:57:04.485Z,23.83
2023-04-19T05:59:31.908Z,23.85
2023-04-19T06:01:59.688Z,26.15
2023-04-19T06:04:28.199Z,23.35
2023-04-19T06:06:55.713Z,22.97
2023-04-19T06:09:22.887Z,23.60
2023-04-19T06:11:51.585Z,25.58
2023-04-19T06:14:19.508Z,26.38
2023-04-19T06:16:47.090Z,24.63
2023-04-19T06:19:14.474Z,22.63
2023-04-19T06:21:41.621Z,25.13
2023-04-19T06:24:08.890Z,27.10
2023-04-19T06:26:36.100Z,27.50
2023-04-19T06:29:03.206Z,26.30
2023-04-19T06:31:30.760Z,24.70
2023-04-19T06:33:57.942Z,25.17
2023-04-19T06:36:25.587Z,23.30
2023-04-19T06:38:52.685Z,21.33
2023-04-19T06:41:19.775Z,18.77
2023-04-19T06:43:46.935Z,24.70
2023-04-19T06:46:14.544Z,25.38
2023-04-19T06:48:42.058Z,26.52
2023-04-19T06:51:09.520Z,26.63
2023-04-19T06:53:37.446Z,25.05
2023-04-19T06:56:05.347Z,24.63
2023-04-19T06:58:34.658Z,24.40
2023-04-19T07:01:04.582Z,24.00
2023-04-19T07:03:32.421Z,24.92
2023-04-19T07:05:59.840Z,25.38
2023-04-19T07:08:35.059Z,25.73
2023-04-19T07:11:09.855Z,23.30
2023-04-19T07:13:37.126Z,23.85
2023-04-19T07:16:05.730Z,24.98
2023-04-19T07:18:32.962Z,24.42
2023-04-19T07:21:00.055Z,22.10
2023-04-19T07:23:27.190Z,23.10
2023-04-19T07:25:54.211Z,20.98
2023-04-19T07:28:21.305Z,23.55
2023-04-19T07:30:48.375Z,24.23
2023-04-19T07:33:15.912Z,20.57
2023-04-19T07:35:43.166Z,22.48
2023-04-19T07:38:10.194Z,20.52
2023-04-19T07:40:37.528Z,20.60
2023-04-19T07:43:04.572Z,18.50
2023-04-19T07:45:31.870Z,20.07
2023-04-19T07:47:59.302Z,21.08
2023-04-19T07:50:27.380Z,17.55
2023-04-19T07:52:54.931Z,18.45
2023-04-19T07:55:22.211Z,17.45
2023-04-19T07:57:50.387Z,17.83
2023-04-19T08:00:19.030Z,23.38
2023-04-19T08:02:47.102Z,18.40
2023-04-19T08:05:17.709Z,16.50
2023-04-19T08:07:45.394Z,18.90
2023-04-19T08:10:12.846Z,14.17
2023-04-19T08:12:47.730Z,18.40
2023-04-19T08:16:03.747Z,17.23
2023-04-19T08:18:11.578Z,18.10
2023-04-19T08:20:38.713Z,19.45
2023-04-19T08:23:18.547Z,18.57
2023-04-19T08:25:49.813Z,17.98
2023-04-19T08:28:18.997Z,16.33
2023-04-19T08:30:46.123Z,18.48
2023-04-19T08:33:13.216Z,16.83
2023-04-19T08:35:41.586Z,17.13
2023-04-19T08:38:09.762Z,14.80
2023-04-19T08:40:47.102Z,15.90
2023-04-19T08:43:15.647Z,15.52
2023-04-19T08:45:43.014Z,14.90
2023-04-19T08:48:11.900Z,12.67
2023-04-19T08:50:55.909Z,17.88
2023-04-19T08:53:34.133Z,15.68
2023-04-19T08:58:52.009Z,14.43
2023-04-19T09:01:34.048Z,16.77
2023-04-19T09:04:17.424Z,14.82
2023-04-19T09:06:54.226Z,16.38
2023-04-19T09:12:00.587Z,15.57
2023-04-19T09:14:29.194Z,17.80
2023-04-19T09:17:16.759Z,12.13
2023-04-19T09:19:48.938Z,15.40
2023-04-19T09:22:16.622Z,15.18
2023-04-19T09:27:26.810Z,14.97
2023-04-19T09:29:59.649Z,14.63
2023-04-19T09:32:28.308Z,14.02
2023-04-19T09:35:00.115Z,13.45
2023-04-19T09:39:57.740Z,13.40
2023-04-19T09:42:47.296Z,11.95
2023-04-19T09:45:29.096Z,10.30
2023-04-19T09:48:09.666Z,11.00
2023-04-19T09:51:10.714Z,9.73
2023-04-19T09:53:41.964Z,13.27
2023-04-19T09:56:12.875Z,11.38
2023-04-19T09:58:51.108Z,13.68
2023-04-19T10:01:22.655Z,13.32
2023-04-19T10:03:51.573Z,15.15
2023-04-19T10:08:53.821Z,14.57
2023-04-19T10:11:27.589Z,15.73
2023-04-19T10:14:00.264Z,13.02
2023-04-19T10:16:27.691Z,13.82
2023-04-19T10:18:55.510Z,14.80
2023-04-19T10:21:22.978Z,17.17
2023-04-19T10:23:51.086Z,15.38
2023-04-19T10:26:18.138Z,15.73
2023-04-19T10:28:45.264Z,17.38
2023-04-19T10:31:13.779Z,18.13
2023-04-19T10:33:42.559Z,13.15
2023-04-19T10:36:14.734Z,16.15
2023-04-19T10:38:48.354Z,14.40
2023-04-19T10:41:19.642Z,13.82
2023-04-19T10:44:09.100Z,13.10
2023-04-19T10:46:40.738Z,14.48
2023-04-19T10:49:10.103Z,13.38
2023-04-19T10:51:44.281Z,13.82
2023-04-19T10:54:33.328Z,14.27
2023-04-19T10:57:05.265Z,12.07
2023-04-19T10:59:38.283Z,12.88
2023-04-19T11:02:25.067Z,14.73
2023-04-19T11:04:52.362Z,12.35
2023-04-19T11:07:21.357Z,11.77
2023-04-19T11:09:49.800Z,11.70
2023-04-19T11:12:21.693Z,11.48
2023-04-19T11:14:54.344Z,11.23
2023-04-19T11:17:32.496Z,11.52
2023-04-19T11:20:03.394Z,12.32
2023-04-19T11:22:36.144Z,11.80
2023-04-19T11:25:08.422Z,10.60
2023-04-19T11:27:35.894Z,12.65
2023-04-19T11:30:05.958Z,10.85
2023-04-19T11:32:33.618Z,10.73
2023-04-19T11:35:10.532Z,12.47
2023-04-19T11:37:39.615Z,11.30
2023-04-19T11:40:08.910Z,12.18
2023-04-19T11:42:36.573Z,10.20
2023-04-19T11:45:04.068Z,12.30
2023-04-19T11:47:32.517Z,11.30
2023-04-19T11:50:46.713Z,12.45
2023-04-19T11:53:23.132Z,11.50
2023-04-19T11:56:08.424Z,12.18
2023-04-19T11:58:48.794Z,11.50
2023-04-19T12:01:19.779Z,10.50
2023-04-19T12:03:50.837Z,10.13
2023-04-19T12:06:29.791Z,12.00
2023-04-19T12:08:57.821Z,11.55
2023-04-19T12:11:42.243Z,13.40
2023-04-19T12:14:15.796Z,9.93
2023-04-19T12:16:44.922Z,11.50
2023-04-19T12:19:18.072Z,10.45
2023-04-19T12:21:47.500Z,13.20
2023-04-19T12:24:17.853Z,11.70
2023-04-19T12:27:02.461Z,13.63
2023-04-19T12:29:31.017Z,13.48
2023-04-19T12:31:58.202Z,13.95
2023-04-19T12:34:25.513Z,12.18
2023-04-19T12:36:52.615Z,14.52
2023-04-19T12:39:19.940Z,11.53
2023-04-19T12:41:48.867Z,11.38
2023-04-19T12:44:16.416Z,10.07
2023-04-19T12:46:43.613Z,10.68
2023-04-19T12:49:10.752Z,12.95
2023-04-19T12:51:37.912Z,13.87
2023-04-19T12:54:07.475Z,11.18
2023-04-19T12:56:35.502Z,12.45
2023-04-19T12:59:02.553Z,11.75
2023-04-19T13:01:29.701Z,12.02
2023-04-19T13:03:59.345Z,10.97
2023-04-19T13:06:27.930Z,12.10
2023-04-19T13:08:55.312Z,11.35
2023-04-19T13:11:23.492Z,9.18
2023-04-19T13:13:52.627Z,10.10
2023-04-19T13:16:20.194Z,10.43
2023-04-19T13:18:47.487Z,9.90
2023-04-19T13:21:15.802Z,11.80
2023-04-19T13:23:44.975Z,11.38
2023-04-19T13:26:12.378Z,9.43
2023-04-19T13:28:42.271Z,8.23
2023-04-19T13:31:09.429Z,9.32
2023-04-19T13:33:36.922Z,10.27
2023-04-19T13:36:04.540Z,9.30
2023-04-19T13:38:31.734Z,10.50
2023-04-19T13:41:00.518Z,8.10
2023-04-19T13:43:27.782Z,8.00
2023-04-19T13:45:55.228Z,8.82
2023-04-19T13:48:22.544Z,10.55
2023-04-19T13:50:51.417Z,7.65
2023-04-19T13:53:18.563Z,7.70
2023-04-19T13:55:45.755Z,10.07
2023-04-19T13:58:12.928Z,8.18
2023-04-19T14:00:40.062Z,8.25
2023-04-19T14:03:07.385Z,8.52
2023-04-19T14:05:34.751Z,7.63
2023-04-19T14:08:02.116Z,9.23
2023-04-19T14:10:29.943Z,9.55
2023-04-19T14:12:57.137Z,8.98
2023-04-19T14:15:25.694Z,8.63
2023-04-19T14:17:53.006Z,9.87
2023-04-19T14:20:23.345Z,10.35
2023-04-19T14:22:50.610Z,9.18
2023-04-19T14:25:20.487Z,8.13
2023-04-19T14:27:47.768Z,6.57
2023-04-19T14:30:14.945Z,6.90
2023-04-19T14:32:44.333Z,6.88
2023-04-19T14:35:12.166Z,6.10
2023-04-19T14:37:39.501Z,9.00
2023-04-19T14:40:07.709Z,5.68
2023-04-19T14:42:34.810Z,8.03
2023-04-19T14:45:02.135Z,7.13
2023-04-19T14:47:30.608Z,7.22
2023-04-19T14:49:57.697Z,5.97
2023-04-19T14:52:25.844Z,6.10
2023-04-19T14:54:55.095Z,5.83
2023-04-19T14:57:22.300Z,6.18
2023-04-19T14:59:49.711Z,4.93
2023-04-19T15:02:29.315Z,6.25
2023-04-19T15:04:57.363Z,5.18
2023-04-19T15:07:25.005Z,4.93
2023-04-19T15:09:55.843Z,7.07
2023-04-19T15:12:27.943Z,6.95
2023-04-19T15:14:56.339Z,5.40
2023-04-19T15:17:26.313Z,5.25
2023-04-19T15:19:57.560Z,6.13
2023-04-19T15:22:25.319Z,7.32
2023-04-19T15:25:23.062Z,7.97
2023-04-19T15:27:53.340Z,7.85
2023-04-19T15:30:23.116Z,5.68
2023-04-19T15:32:55.129Z,6.07
2023-04-19T15:35:36.049Z,6.20
2023-04-19T15:38:11.326Z,6.30
2023-04-19T15:40:42.745Z,6.30
2023-04-19T15:43:14.969Z,6.50
2023-04-19T15:45:53.267Z,10.73
2023-04-19T15:48:31.421Z,5.70
2023-04-19T15:51:16.724Z,6.80
2023-04-19T15:53:56.516Z,6.60
2023-04-19T15:56:29.807Z,6.63
2023-04-19T15:58:57.115Z,6.00
2023-04-19T16:01:24.284Z,6.70
2023-04-19T16:03:51.710Z,5.72
2023-04-19T16:06:18.923Z,5.95
2023-04-19T16:08:46.078Z,7.15
2023-04-19T16:11:13.215Z,6.47
2023-04-19T16:13:40.307Z,6.30
2023-04-19T16:16:07.530Z,6.35
2023-04-19T16:18:34.612Z,7.07
2023-04-19T16:21:01.695Z,5.55
2023-04-19T16:23:29.013Z,6.00
2023-04-19T16:25:56.974Z,6.90
2023-04-19T16:28:24.097Z,6.22
2023-04-19T16:30:51.161Z,6.40
2023-04-19T16:33:18.309Z,6.32
2023-04-19T16:35:45.850Z,6.83
2023-04-19T16:38:12.880Z,5.70
2023-04-19T16:40:40.096Z,7.90
2023-04-19T16:43:07.244Z,7.15
2023-04-19T16:45:34.344Z,4.97
2023-04-19T16:48:01.671Z,6.00
2023-04-19T16:50:28.979Z,5.50
2023-04-19T16:52:56.062Z,6.68
2023-04-19T16:55:23.358Z,6.85
2023-04-19T16:57:55.529Z,6.28
2023-04-19T17:00:23.500Z,8.13
2023-04-19T17:02:51.872Z,8.10
2023-04-19T17:05:19.755Z,5.68
2023-04-19T17:07:46.882Z,6.43
2023-04-19T17:10:14.066Z,6.57
2023-04-19T17:12:41.234Z,8.00
2023-04-19T17:15:08.960Z,6.05
2023-04-19T17:17:36.112Z,5.68
2023-04-19T17:20:05.587Z,6.70
2023-04-19T17:22:32.808Z,6.28
2023-04-19T17:25:00.512Z,8.23
2023-04-19T17:27:27.650Z,9.32
2023-04-19T17:29:54.757Z,6.70
2023-04-19T17:32:22.426Z,5.78
2023-04-19T17:34:49.640Z,8.23
2023-04-19T17:37:16.806Z,6.57
2023-04-19T17:39:43.999Z,7.78
2023-04-19T17:42:11.066Z,6.85
2023-04-19T17:44:38.299Z,7.32
2023-04-19T17:47:05.463Z,7.18
2023-04-19T17:49:32.630Z,8.90
2023-04-19T17:51:59.705Z,6.10
2023-04-19T17:54:26.844Z,6.15
2023-04-19T17:56:54.362Z,6.78
2023-04-19T17:59:21.474Z,6.95
2023-04-19T18:01:48.584Z,8.33
2023-04-19T18:04:18.204Z,8.77
2023-04-19T18:06:46.927Z,6.28
2023-04-19T18:09:14.854Z,6.18
2023-04-19T18:11:42.218Z,7.00
2023-04-19T18:14:09.585Z,6.93
2023-04-19T18:16:36.906Z,8.93
2023-04-19T18:19:04.117Z,8.93
2023-04-19T18:21:31.518Z,6.00
2023-04-19T18:23:58.900Z,8.80
2023-04-19T18:26:26.008Z,6.97
2023-04-19T18:28:53.984Z,6.78
2023-04-19T18:31:21.333Z,7.63
2023-04-19T18:33:48.799Z,7.97
2023-04-19T18:36:15.850Z,7.55
2023-04-19T18:38:43.084Z,9.43
2023-04-19T18:41:10.467Z,6.82
2023-04-19T18:43:37.541Z,7.18
2023-04-19T18:46:04.668Z,6.65
2023-04-19T18:48:31.811Z,8.73
2023-04-19T18:50:59.677Z,8.17
2023-04-19T18:53:31.717Z,8.30
2023-04-19T18:55:58.978Z,7.78
2023-04-19T18:58:27.387Z,7.50
2023-04-19T19:00:55.763Z,7.47
2023-04-19T19:05:54.968Z,9.27
2023-04-19T19:08:22.526Z,8.18
2023-04-19T19:11:13.777Z,9.00
2023-04-19T19:13:36.788Z,7.65
2023-04-19T19:16:06.180Z,9.83
2023-04-19T19:18:34.438Z,7.85
2023-04-19T19:21:01.563Z,8.63
2023-04-19T19:23:35.783Z,6.32
2023-04-19T19:26:05.118Z,7.38
2023-04-19T19:28:32.319Z,8.27
2023-04-19T19:30:59.442Z,7.10
2023-04-19T19:33:28.759Z,7.70
2023-04-19T19:35:56.129Z,7.85
2023-04-19T19:38:23.316Z,8.20
2023-04-19T19:43:20.681Z,6.47
2023-04-19T19:45:47.945Z,8.15
2023-04-19T19:48:18.020Z,8.55
2023-04-19T19:51:17.308Z,7.07
2023-04-19T19:53:32.750Z,6.10
2023-04-19T19:56:00.582Z,6.63
2023-04-19T19:58:48.130Z,7.35
2023-04-19T20:01:15.769Z,6.82
2023-04-19T20:03:45.883Z,5.93
2023-04-19T20:08:47.519Z,6.60
2023-04-19T20:11:15.337Z,7.90
2023-04-19T20:13:42.658Z,6.82
2023-04-19T20:16:10.901Z,9.25
2023-04-19T20:18:42.756Z,7.73
2023-04-19T20:21:10.180Z,6.70
2023-04-19T20:23:43.585Z,7.35
2023-04-19T20:26:10.872Z,6.60
2023-04-19T20:28:38.384Z,6.65
2023-04-19T20:31:06.129Z,6.63
2023-04-19T20:33:33.622Z,6.20
2023-04-19T20:36:01.884Z,6.38
2023-04-19T20:38:29.013Z,5.80
2023-04-19T20:40:57.074Z,8.52
2023-04-19T20:43:24.136Z,8.80
2023-04-19T20:45:51.286Z,6.13
2023-04-19T20:48:18.481Z,6.55
2023-04-19T20:50:45.699Z,6.32
2023-04-19T20:53:12.765Z,6.85
2023-04-19T20:55:40.869Z,9.27
2023-04-19T20:58:07.958Z,6.57
2023-04-19T21:00:35.039Z,6.32
2023-04-19T21:03:04.909Z,8.27
2023-04-19T21:05:33.281Z,6.38
2023-04-19T21:08:00.363Z,5.40
2023-04-19T21:10:27.968Z,6.90
2023-04-19T21:12:55.169Z,6.53
2023-04-19T21:15:22.420Z,6.00
2023-04-19T21:17:49.511Z,7.22
2023-04-19T21:20:18.163Z,9.23
2023-04-19T21:22:47.246Z,7.10
2023-04-19T21:25:14.495Z,5.90
2023-04-19T21:27:42.497Z,6.47
2023-04-19T21:30:10.889Z,4.20
2023-04-19T21:32:38.121Z,5.30
2023-04-19T21:35:06.058Z,6.80
2023-04-19T21:37:33.201Z,5.93
2023-04-19T21:40:00.338Z,5.25
2023-04-19T21:42:27.485Z,6.30
2023-04-19T21:44:54.614Z,4.60
2023-04-19T21:47:21.680Z,6.13
2023-04-19T21:49:50.225Z,5.47
2023-04-19T21:52:17.669Z,8.43
2023-04-19T21:54:44.896Z,5.85
2023-04-19T21:57:12.696Z,5.13
2023-04-19T21:59:40.161Z,7.13
2023-04-19T22:02:09.356Z,5.97
2023-04-19T22:04:36.711Z,5.47
2023-04-19T22:07:03.847Z,6.07
2023-04-19T22:09:31.129Z,5.87
2023-04-19T22:11:58.315Z,6.10
2023-04-19T22:14:25.612Z,6.85
2023-04-19T22:16:53.944Z,5.35
2023-04-19T22:19:21.245Z,6.13
2023-04-19T22:21:48.452Z,7.20
2023-04-19T22:24:15.821Z,6.28
2023-04-19T22:26:43.129Z,7.38
2023-04-19T22:29:10.401Z,5.95
2023-04-19T22:31:37.475Z,7.47
2023-04-19T22:34:04.606Z,5.47
2023-04-19T22:36:31.623Z,7.10
2023-04-19T22:38:58.750Z,4.95
2023-04-19T22:41:26.151Z,5.35
2023-04-19T22:43:54.135Z,7.35
2023-04-19T22:46:21.504Z,6.10
2023-04-19T22:48:49.897Z,6.25
2023-04-19T22:51:18.251Z,6.40
2023-04-19T22:53:45.470Z,7.50
2023-04-19T22:56:12.647Z,5.40
2023-04-19T22:58:39.693Z,6.63
2023-04-19T23:01:06.976Z,6.18
2023-04-19T23:03:34.408Z,6.20
2023-04-19T23:06:03.493Z,7.43
2023-04-19T23:08:31.115Z,6.53
2023-04-19T23:10:58.192Z,7.00
2023-04-19T23:13:25.388Z,8.52
2023-04-19T23:15:52.869Z,6.35
2023-04-19T23:18:21.343Z,5.03
2023-04-19T23:20:48.472Z,5.40
2023-04-19T23:23:15.842Z,8.50
2023-04-19T23:25:42.857Z,6.00
2023-04-19T23:28:12.406Z,7.00
2023-04-19T23:30:39.821Z,6.22
2023-04-19T23:33:07.017Z,8.55
2023-04-19T23:35:34.249Z,6.63
2023-04-19T23:38:01.295Z,11.68
2023-04-19T23:40:28.426Z,6.50
2023-04-19T23:42:55.759Z,6.68
2023-04-19T23:45:23.039Z,5.65
2023-04-19T23:47:50.851Z,5.50
2023-04-19T23:50:20.725Z,8.55
2023-04-19T23:52:47.766Z,7.13
2023-04-19T23:55:14.915Z,5.43
2023-04-19T23:57:42.070Z,6.47
